Time;durP1;ratioP1;P1;durP2;ratioP2;P2;SDS_P1;SDS_P2;PMS_P1;PMS_P2;Temp;Humidity;BMP_temperature;BMP_pressure;BME280_temperature;BME280_humidity;BME280_pressure;Samples;Min_cycle;Max_cycle;Signal;HPM_P1;HPM_P2
2022/01/07 07:04:28;;;;;;;2.15;1.80;;;;;;;;;;6305664;22;20039;-83
2022/01/07 14:51:07;;;;;;;3.60;2.00;;;;;;;;;;6268733;22;20454;-81
2022/01/07 14:53:32;;;;;;;2.33;2.03;;;;;;;;;;6308244;22;20731;-81
2022/01/07 14:55:58;;;;;;;3.38;2.63;;;;;;;;;;6307538;22;20011;-83
2022/01/07 14:58:23;;;;;;;2.88;1.95;;;;;;;;;;6308787;22;20321;-81
2022/01/07 15:00:49;;;;;;;2.20;1.67;;;;;;;;;;6281139;22;20007;-81
2022/01/07 15:03:15;;;;;;;2.75;2.03;;;;;;;;;;6308079;22;20082;-81
2022/01/07 15:05:40;;;;;;;3.47;2.75;;;;;;;;;;6309185;22;20006;-83
2022/01/07 15:08:08;;;;;;;2.75;1.75;;;;;;;;;;6309115;22;19999;-81
2022/01/07 15:10:33;;;;;;;2.00;1.80;;;;;;;;;;6281777;22;20022;-82
2022/01/07 15:12:59;;;;;;;2.17;1.98;;;;;;;;;;6309328;22;20363;-81
2022/01/07 15:18:08;;;;;;;1.88;1.65;;;;;;;;;;6307610;22;20082;-81
2022/01/07 15:20:34;;;;;;;3.35;1.90;;;;;;;;;;6307357;22;20027;-83
2022/01/07 15:23:00;;;;;;;2.72;1.77;;;;;;;;;;6309064;22;20003;-82
2022/01/07 15:25:26;;;;;;;2.30;1.95;;;;;;;;;;6308804;22;20003;-82
2022/01/07 15:27:51;;;;;;;2.15;1.95;;;;;;;;;;6308526;22;20440;-81
2022/01/07 15:30:17;;;;;;;5.60;3.60;;;;;;;;;;6308779;22;20362;-82
2022/01/07 15:32:42;;;;;;;3.72;2.88;;;;;;;;;;6308615;22;20422;-82
2022/01/07 15:35:09;;;;;;;4.13;2.60;;;;;;;;;;6308250;22;20319;-81
2022/01/07 15:37:39;;;;;;;3.58;2.88;;;;;;;;;;6308164;22;20026;-82
2022/01/07 15:40:06;;;;;;;6.03;3.00;;;;;;;;;;6308321;22;19999;-82
2022/01/07 15:42:32;;;;;;;3.97;3.03;;;;;;;;;;6308120;22;20003;-83
2022/01/07 15:44:57;;;;;;;4.35;2.95;;;;;;;;;;6308170;22;20410;-83
2022/01/07 15:47:23;;;;;;;4.10;2.80;;;;;;;;;;6307950;22;19999;-83
2022/01/07 15:49:48;;;;;;;4.82;2.90;;;;;;;;;;6308060;22;20041;-83
2022/01/07 15:52:13;;;;;;;5.32;3.38;;;;;;;;;;6300875;22;20438;-82
2022/01/07 15:54:39;;;;;;;6.68;4.45;;;;;;;;;;6276899;22;20415;-82
2022/01/07 15:57:05;;;;;;;3.83;2.78;;;;;;;;;;6277595;22;20004;-82
2022/01/07 15:59:32;;;;;;;3.30;3.00;;;;;;;;;;6277164;22;20035;-83
2022/01/07 16:01:58;;;;;;;5.07;3.08;;;;;;;;;;6276861;22;19999;-83
2022/01/07 16:04:23;;;;;;;3.45;2.65;;;;;;;;;;6277001;22;20419;-84
2022/01/07 16:06:49;;;;;;;4.05;2.90;;;;;;;;;;6276742;22;20003;-85
2022/01/07 16:09:14;;;;;;;4.00;2.33;;;;;;;;;;6276581;22;20166;-86
2022/01/07 16:11:40;;;;;;;5.07;3.63;;;;;;;;;;6300754;22;20057;-86
2022/01/07 16:14:05;;;;;;;3.10;2.70;;;;;;;;;;6277295;22;20003;-83
2022/01/07 16:16:31;;;;;;;2.42;2.10;;;;;;;;;;6277378;22;20079;-86
2022/01/07 16:18:56;;;;;;;3.40;2.45;;;;;;;;;;6275906;22;20010;-86
2022/01/07 16:21:22;;;;;;;2.08;1.88;;;;;;;;;;6277361;22;20004;-86
2022/01/07 16:23:47;;;;;;;3.95;2.67;;;;;;;;;;6275259;22;20000;-85
2022/01/07 16:26:13;;;;;;;4.65;2.63;;;;;;;;;;6276460;22;20003;-85
2022/01/07 16:28:41;;;;;;;2.17;1.98;;;;;;;;;;6277071;22;20070;-84
2022/01/07 16:31:12;;;;;;;3.78;2.25;;;;;;;;;;6300901;22;20008;-85
2022/01/07 16:33:37;;;;;;;2.55;2.13;;;;;;;;;;6277028;22;20054;-86
2022/01/07 16:36:03;;;;;;;2.58;2.35;;;;;;;;;;6276500;22;20308;-84
2022/01/07 16:38:28;;;;;;;3.45;2.75;;;;;;;;;;6276673;22;20000;-85
2022/01/07 16:40:54;;;;;;;10.15;4.85;;;;;;;;;;6276526;22;20006;-85
2022/01/07 16:43:21;;;;;;;6.68;3.78;;;;;;;;;;6276955;22;20070;-84
2022/01/07 16:45:47;;;;;;;4.63;2.80;;;;;;;;;;6276836;22;20048;-84
2022/01/07 16:48:12;;;;;;;3.97;3.00;;;;;;;;;;6276396;22;20417;-84
2022/01/07 16:50:40;;;;;;;8.32;3.63;;;;;;;;;;6283961;22;20068;-85
2022/01/07 16:53:05;;;;;;;8.63;4.20;;;;;;;;;;6307668;22;20059;-84
2022/01/07 16:55:34;;;;;;;4.45;3.35;;;;;;;;;;6307913;22;20094;-84
2022/01/07 16:57:59;;;;;;;4.63;2.88;;;;;;;;;;6280183;22;20060;-84
2022/01/07 17:00:25;;;;;;;4.70;2.83;;;;;;;;;;6280789;22;20393;-86
2022/01/07 17:02:50;;;;;;;4.45;2.85;;;;;;;;;;6308051;22;20008;-85
2022/01/07 17:05:16;;;;;;;5.55;2.90;;;;;;;;;;6307756;22;20007;-85
2022/01/07 17:07:42;;;;;;;3.50;2.40;;;;;;;;;;6307605;22;20045;-85
2022/01/07 17:10:08;;;;;;;6.22;4.60;;;;;;;;;;6307330;22;20003;-84
2022/01/07 17:12:34;;;;;;;7.20;4.72;;;;;;;;;;6307408;22;20003;-85
2022/01/07 17:15:01;;;;;;;6.03;4.13;;;;;;;;;;6307058;22;20424;-83
2022/01/07 17:17:27;;;;;;;5.15;3.60;;;;;;;;;;6280371;22;20007;-83
2022/01/07 17:19:52;;;;;;;4.22;2.65;;;;;;;;;;6307210;22;20097;-84
2022/01/07 17:22:18;;;;;;;3.65;3.22;;;;;;;;;;6307783;22;20052;-83
2022/01/07 17:24:44;;;;;;;4.30;3.63;;;;;;;;;;6307768;22;20014;-86
2022/01/07 17:27:11;;;;;;;6.13;3.58;;;;;;;;;;6307652;22;20032;-81
2022/01/07 17:29:37;;;;;;;5.78;4.00;;;;;;;;;;6306181;22;20068;-81
2022/01/07 17:32:03;;;;;;;5.57;4.13;;;;;;;;;;6307141;22;20003;-82
2022/01/07 17:34:29;;;;;;;5.45;3.42;;;;;;;;;;6307181;22;20007;-81
2022/01/07 17:36:55;;;;;;;3.20;2.85;;;;;;;;;;6306517;22;20026;-82
2022/01/07 17:39:20;;;;;;;4.75;3.45;;;;;;;;;;6280330;22;20418;-82
2022/01/07 17:41:46;;;;;;;5.25;2.92;;;;;;;;;;6307491;22;19995;-81
2022/01/07 17:44:12;;;;;;;5.18;2.63;;;;;;;;;;6307542;22;20010;-80
2022/01/07 17:46:38;;;;;;;3.30;2.60;;;;;;;;;;6307541;22;20010;-81
2022/01/07 17:49:04;;;;;;;5.88;3.60;;;;;;;;;;6307738;22;20007;-81
2022/01/07 17:51:29;;;;;;;5.03;3.25;;;;;;;;;;6308026;22;20011;-81
2022/01/07 17:53:56;;;;;;;6.13;3.60;;;;;;;;;;6310164;22;20325;-82
2022/01/07 17:56:22;;;;;;;6.82;4.10;;;;;;;;;;6309164;22;20091;-81
2022/01/07 17:58:47;;;;;;;8.05;4.25;;;;;;;;;;6309782;22;20030;-83
2022/01/07 18:01:13;;;;;;;6.80;4.00;;;;;;;;;;6308808;22;20086;-82
2022/01/07 18:03:38;;;;;;;4.75;3.67;;;;;;;;;;6309648;22;19999;-82
2022/01/07 18:06:04;;;;;;;5.80;3.70;;;;;;;;;;6282123;22;20137;-82
2022/01/07 18:08:29;;;;;;;17.25;8.35;;;;;;;;;;6309452;22;19999;-83
2022/01/07 18:10:55;;;;;;;8.80;5.03;;;;;;;;;;6309353;22;19999;-82
2022/01/07 18:13:21;;;;;;;51.13;34.97;;;;;;;;;;6309537;22;20007;-84
2022/01/07 18:15:47;;;;;;;18.55;9.90;;;;;;;;;;6309364;22;20007;-84
2022/01/07 18:18:13;;;;;;;10.43;6.40;;;;;;;;;;6309129;22;20030;-82
2022/01/07 18:20:38;;;;;;;7.78;4.85;;;;;;;;;;6309484;22;20004;-82
2022/01/07 18:23:05;;;;;;;6.63;5.50;;;;;;;;;;6309307;22;20011;-84
2022/01/07 18:25:31;;;;;;;6.22;5.40;;;;;;;;;;6309393;22;19999;-83
2022/01/07 18:27:57;;;;;;;8.02;5.15;;;;;;;;;;6309190;22;20006;-84
2022/01/07 18:30:23;;;;;;;4.07;3.60;;;;;;;;;;6309149;22;20000;-82
2022/01/07 18:32:49;;;;;;;5.93;3.88;;;;;;;;;;6309344;22;20002;-82
2022/01/07 18:35:15;;;;;;;3.90;3.28;;;;;;;;;;6309063;22;20007;-83
2022/01/07 18:37:40;;;;;;;4.63;3.47;;;;;;;;;;6309190;22;20007;-83
2022/01/07 18:40:06;;;;;;;4.45;3.40;;;;;;;;;;6309216;22;20006;-83
2022/01/07 18:42:32;;;;;;;6.70;4.53;;;;;;;;;;6309312;22;20030;-83
2022/01/07 18:44:57;;;;;;;7.70;3.90;;;;;;;;;;6308953;22;20029;-83
2022/01/07 18:47:22;;;;;;;4.97;3.65;;;;;;;;;;6281771;22;20444;-84
2022/01/07 18:49:48;;;;;;;7.18;5.43;;;;;;;;;;6309396;22;20426;-83
2022/01/07 18:52:14;;;;;;;8.18;5.88;;;;;;;;;;6309030;22;20022;-83
2022/01/07 18:54:40;;;;;;;8.80;5.82;;;;;;;;;;6309379;22;20004;-84
2022/01/07 18:57:06;;;;;;;9.05;6.18;;;;;;;;;;6308795;22;20000;-83
2022/01/07 18:59:31;;;;;;;11.63;6.85;;;;;;;;;;6309069;22;20010;-84
2022/01/07 19:01:57;;;;;;;9.63;6.63;;;;;;;;;;6308997;22;20006;-83
2022/01/07 19:04:22;;;;;;;11.07;6.30;;;;;;;;;;6308196;22;20003;-83
2022/01/07 19:06:48;;;;;;;13.30;6.72;;;;;;;;;;6308961;22;20034;-82
2022/01/07 19:09:13;;;;;;;15.25;8.38;;;;;;;;;;6308760;22;20003;-83
2022/01/07 19:11:39;;;;;;;14.40;7.78;;;;;;;;;;6308834;22;20006;-85
2022/01/07 19:14:05;;;;;;;11.15;7.38;;;;;;;;;;6308946;22;20002;-83
2022/01/07 19:16:31;;;;;;;21.20;12.30;;;;;;;;;;6309055;22;20014;-86
2022/01/07 19:18:56;;;;;;;14.23;9.93;;;;;;;;;;6309213;22;19999;-87
2022/01/07 19:21:22;;;;;;;13.70;8.50;;;;;;;;;;6309510;22;19999;-86
2022/01/07 19:23:49;;;;;;;16.88;10.82;;;;;;;;;;6310106;22;20010;-86
2022/01/07 19:26:14;;;;;;;13.02;8.15;;;;;;;;;;6315097;22;20010;-87
2022/01/07 19:28:40;;;;;;;14.77;8.18;;;;;;;;;;6315484;22;20078;-85
2022/01/07 19:31:06;;;;;;;11.55;7.63;;;;;;;;;;6311363;22;20422;-84
2022/01/07 19:33:31;;;;;;;12.85;8.80;;;;;;;;;;6308766;22;20004;-84
2022/01/07 19:35:57;;;;;;;13.50;9.20;;;;;;;;;;6308768;22;20330;-85
2022/01/07 19:38:23;;;;;;;12.88;8.95;;;;;;;;;;6308622;22;20076;-85
2022/01/07 19:40:48;;;;;;;14.63;9.05;;;;;;;;;;6308659;22;19995;-84
2022/01/07 19:43:15;;;;;;;11.88;8.80;;;;;;;;;;6308533;22;20319;-84
2022/01/07 19:45:41;;;;;;;13.50;9.10;;;;;;;;;;6308411;22;19999;-84
2022/01/07 19:48:08;;;;;;;16.10;10.43;;;;;;;;;;6308501;22;20004;-83
2022/01/07 19:50:35;;;;;;;14.85;9.50;;;;;;;;;;6308523;22;20041;-84
2022/01/07 19:53:01;;;;;;;16.38;10.18;;;;;;;;;;6281006;22;20007;-84
2022/01/07 19:55:27;;;;;;;20.60;11.82;;;;;;;;;;6281009;22;20064;-85
2022/01/07 19:57:52;;;;;;;14.38;9.82;;;;;;;;;;6280833;22;20038;-84
2022/01/07 20:00:18;;;;;;;16.50;10.95;;;;;;;;;;6308316;22;20007;-84
2022/01/07 20:02:44;;;;;;;14.65;9.57;;;;;;;;;;6308542;22;20314;-85
2022/01/07 20:05:10;;;;;;;13.32;8.35;;;;;;;;;;6308243;22;19999;-85
2022/01/07 20:07:36;;;;;;;13.20;8.18;;;;;;;;;;6308135;22;20003;-85
2022/01/07 20:10:04;;;;;;;10.35;7.57;;;;;;;;;;6308327;22;20461;-84
2022/01/07 20:12:30;;;;;;;9.77;7.40;;;;;;;;;;6308226;22;20008;-85
2022/01/07 20:14:55;;;;;;;6.45;4.70;;;;;;;;;;6307500;22;20444;-84
2022/01/07 20:17:21;;;;;;;6.35;5.30;;;;;;;;;;6280918;22;20442;-85
2022/01/07 20:19:46;;;;;;;6.28;5.07;;;;;;;;;;6308221;22;20334;-85
2022/01/07 20:22:11;;;;;;;6.63;4.57;;;;;;;;;;6308181;22;20027;-84
2022/01/07 20:24:37;;;;;;;7.38;4.80;;;;;;;;;;6308345;22;20027;-85
2022/01/07 20:27:03;;;;;;;9.48;7.18;;;;;;;;;;6280538;22;20007;-86
2022/01/07 20:29:28;;;;;;;15.02;9.90;;;;;;;;;;6308024;22;20023;-85
2022/01/07 20:31:54;;;;;;;12.75;8.23;;;;;;;;;;6308047;22;20322;-86
2022/01/07 20:34:19;;;;;;;13.27;8.32;;;;;;;;;;6308011;22;19995;-85
2022/01/07 20:36:44;;;;;;;13.85;7.38;;;;;;;;;;6308159;22;20052;-86
2022/01/07 20:39:11;;;;;;;13.48;7.28;;;;;;;;;;6308197;22;20003;-86
2022/01/07 20:41:38;;;;;;;18.02;8.88;;;;;;;;;;6280773;22;20003;-86
2022/01/07 20:44:10;;;;;;;18.50;8.93;;;;;;;;;;6307987;22;20004;-86
2022/01/07 20:46:35;;;;;;;24.52;10.05;;;;;;;;;;6308158;22;20383;-86
2022/01/07 20:49:01;;;;;;;20.33;9.80;;;;;;;;;;6308313;22;20014;-85
2022/01/07 20:51:26;;;;;;;14.73;7.97;;;;;;;;;;6307827;22;20049;-84
2022/01/07 20:53:52;;;;;;;13.23;7.93;;;;;;;;;;6281180;22;20071;-84
2022/01/07 20:56:17;;;;;;;16.27;9.15;;;;;;;;;;6307803;22;20015;-85
2022/01/07 20:58:43;;;;;;;18.83;11.68;;;;;;;;;;6307983;22;20027;-86
2022/01/07 21:01:08;;;;;;;18.38;10.73;;;;;;;;;;6307942;22;20410;-85
2022/01/07 21:03:34;;;;;;;23.02;11.75;;;;;;;;;;6280656;22;20006;-85
2022/01/07 21:06:00;;;;;;;15.57;9.07;;;;;;;;;;6308275;22;20003;-84
2022/01/07 21:08:26;;;;;;;23.73;11.80;;;;;;;;;;6307825;22;20079;-85
2022/01/07 21:10:52;;;;;;;42.83;18.33;;;;;;;;;;6307869;22;20010;-84
2022/01/07 21:13:18;;;;;;;61.38;22.80;;;;;;;;;;6308570;22;20322;-86
2022/01/07 21:15:44;;;;;;;94.15;36.80;;;;;;;;;;6280671;22;20042;-85
2022/01/07 21:18:09;;;;;;;19.13;10.48;;;;;;;;;;6307818;22;20002;-85
2022/01/07 21:20:35;;;;;;;14.52;8.05;;;;;;;;;;6307932;22;19999;-86
2022/01/07 21:23:00;;;;;;;12.73;7.75;;;;;;;;;;6280580;22;20010;-85
2022/01/07 21:25:27;;;;;;;16.73;9.05;;;;;;;;;;6307767;22;19995;-85
2022/01/07 21:27:52;;;;;;;24.02;11.30;;;;;;;;;;6280125;22;20466;-85
2022/01/07 21:30:20;;;;;;;29.05;14.63;;;;;;;;;;6308258;22;19999;-85
2022/01/07 21:32:45;;;;;;;31.70;16.92;;;;;;;;;;6308041;22;20002;-85
2022/01/07 21:35:13;;;;;;;14.27;9.13;;;;;;;;;;6280194;22;20015;-85
2022/01/07 21:37:39;;;;;;;17.35;10.23;;;;;;;;;;6307692;22;20003;-86
2022/01/07 21:40:05;;;;;;;19.08;11.35;;;;;;;;;;6307296;22;20009;-88
2022/01/07 21:42:31;;;;;;;15.93;10.13;;;;;;;;;;6280102;22;20057;-85
2022/01/07 21:44:56;;;;;;;17.08;10.68;;;;;;;;;;6307905;22;20007;-85
2022/01/07 21:47:21;;;;;;;9.18;6.70;;;;;;;;;;6307631;22;20007;-85
